sensor_id;sensor_type;location;lat;lon;timestamp;pressure;altitude;pressure_sealevel;temperature;humidity
78409;BME280;67697;50.750;-3.270;2024-02-23T00:00:54;97960.00;;;3.75;100.00
78409;BME280;67697;50.750;-3.270;2024-02-23T00:03:20;97954.09;;;3.80;100.00
78409;BME280;67697;50.750;-3.270;2024-02-23T00:05:46;97952.72;;;3.47;100.00
78409;BME280;67697;50.750;-3.270;2024-02-23T00:08:11;97959.61;;;3.35;100.00
78409;BME280;67697;50.750;-3.270;2024-02-23T00:10:38;97959.41;;;3.34;100.00
78409;BME280;67697;50.750;-3.270;2024-02-23T00:13:03;97955.27;;;3.13;100.00
78409;BME280;67697;50.750;-3.270;2024-02-23T00:15:28;97956.55;;;3.38;100.00
78409;BME280;67697;50.750;-3.270;2024-02-23T00:17:54;97954.59;;;3.89;100.00
78409;BME280;67697;50.750;-3.270;2024-02-23T00:20:20;97952.71;;;3.47;100.00
78409;BME280;67697;50.750;-3.270;2024-02-23T00:22:47;97953.22;;;3.48;100.00
78409;BME280;67697;50.750;-3.270;2024-02-23T00:25:11;97955.06;;;3.11;100.00
78409;BME280;67697;50.750;-3.270;2024-02-23T00:27:37;97954.65;;;3.05;100.00
78409;BME280;67697;50.750;-3.270;2024-02-23T00:30:04;97951.69;;;3.13;100.00
78409;BME280;67697;50.750;-3.270;2024-02-23T00:32:29;97949.63;;;3.37;100.00
78409;BME280;67697;50.750;-3.270;2024-02-23T00:37:21;97969.43;;;3.51;100.00
78409;BME280;67697;50.750;-3.270;2024-02-23T00:39:46;97954.50;;;3.28;100.00
78409;BME280;67697;50.750;-3.270;2024-02-23T00:42:12;97954.00;;;3.12;100.00
78409;BME280;67697;50.750;-3.270;2024-02-23T00:44:38;97947.01;;;3.25;100.00
78409;BME280;67697;50.750;-3.270;2024-02-23T00:47:03;97948.43;;;3.34;100.00
78409;BME280;67697;50.750;-3.270;2024-02-23T00:49:30;97952.98;;;3.38;100.00
78409;BME280;67697;50.750;-3.270;2024-02-23T00:51:55;97959.91;;;3.17;100.00
78409;BME280;67697;50.750;-3.270;2024-02-23T00:54:21;97965.61;;;3.28;100.00
78409;BME280;67697;50.750;-3.270;2024-02-23T00:56:46;97964.37;;;3.64;100.00
78409;BME280;67697;50.750;-3.270;2024-02-23T00:59:12;97968.59;;;3.84;100.00
78409;BME280;67697;50.750;-3.270;2024-02-23T01:01:38;97967.93;;;4.26;100.00
78409;BME280;67697;50.750;-3.270;2024-02-23T01:04:03;97962.89;;;3.94;100.00
78409;BME280;67697;50.750;-3.270;2024-02-23T01:06:29;97966.64;;;3.58;100.00
78409;BME280;67697;50.750;-3.270;2024-02-23T01:08:55;97964.53;;;3.44;100.00
78409;BME280;67697;50.750;-3.270;2024-02-23T01:11:21;97961.74;;;3.27;100.00
78409;BME280;67697;50.750;-3.270;2024-02-23T01:13:46;97967.49;;;3.59;100.00
78409;BME280;67697;50.750;-3.270;2024-02-23T01:16:12;97959.41;;;4.19;100.00
78409;BME280;67697;50.750;-3.270;2024-02-23T01:18:38;97965.74;;;4.51;100.00
78409;BME280;67697;50.750;-3.270;2024-02-23T01:21:04;97965.79;;;4.44;100.00
78409;BME280;67697;50.750;-3.270;2024-02-23T01:23:30;97972.34;;;3.86;100.00
78409;BME280;67697;50.750;-3.270;2024-02-23T01:25:56;97973.52;;;4.70;100.00
78409;BME280;67697;50.750;-3.270;2024-02-23T01:28:21;97974.50;;;4.48;100.00
78409;BME280;67697;50.750;-3.270;2024-02-23T01:30:46;97975.59;;;4.69;100.00
78409;BME280;67697;50.750;-3.270;2024-02-23T01:33:12;97969.60;;;4.78;100.00
78409;BME280;67697;50.750;-3.270;2024-02-23T01:35:38;97970.53;;;4.40;100.00
78409;BME280;67697;50.750;-3.270;2024-02-23T01:38:04;97978.35;;;4.08;100.00
78409;BME280;67697;50.750;-3.270;2024-02-23T01:40:29;97979.01;;;4.26;100.00
78409;BME280;67697;50.750;-3.270;2024-02-23T01:43:02;97981.46;;;4.60;100.00
78409;BME280;67697;50.750;-3.270;2024-02-23T01:45:20;97981.47;;;5.02;100.00
78409;BME280;67697;50.750;-3.270;2024-02-23T01:47:46;97983.36;;;5.09;100.00
78409;BME280;67697;50.750;-3.270;2024-02-23T01:50:12;97980.14;;;5.31;100.00
78409;BME280;67697;50.750;-3.270;2024-02-23T01:52:43;97973.91;;;5.89;100.00
78409;BME280;67697;50.750;-3.270;2024-02-23T01:55:04;97974.48;;;5.73;100.00
78409;BME280;67697;50.750;-3.270;2024-02-23T01:57:29;97983.43;;;5.43;100.00
78409;BME280;67697;50.750;-3.270;2024-02-23T01:59:55;97977.43;;;6.43;100.00
78409;BME280;67697;50.750;-3.270;2024-02-23T02:02:20;97978.75;;;6.46;100.00
78409;BME280;67697;50.750;-3.270;2024-02-23T02:04:47;97983.42;;;6.82;100.00
78409;BME280;67697;50.750;-3.270;2024-02-23T02:07:12;97976.79;;;6.30;100.00
78409;BME280;67697;50.750;-3.270;2024-02-23T02:09:37;97982.43;;;4.73;100.00
78409;BME280;67697;50.750;-3.270;2024-02-23T02:12:03;97980.41;;;4.63;100.00
78409;BME280;67697;50.750;-3.270;2024-02-23T02:14:29;97975.95;;;4.10;100.00
78409;BME280;67697;50.750;-3.270;2024-02-23T02:16:55;97978.35;;;4.05;100.00
78409;BME280;67697;50.750;-3.270;2024-02-23T02:19:20;97971.99;;;3.83;100.00
78409;BME280;67697;50.750;-3.270;2024-02-23T02:21:46;97993.43;;;4.18;100.00
78409;BME280;67697;50.750;-3.270;2024-02-23T02:24:12;97991.77;;;3.62;100.00
78409;BME280;67697;50.750;-3.270;2024-02-23T02:26:38;97988.16;;;4.64;100.00
78409;BME280;67697;50.750;-3.270;2024-02-23T02:29:03;97994.61;;;4.41;100.00
78409;BME280;67697;50.750;-3.270;2024-02-23T02:31:29;97997.70;;;4.64;100.00
78409;BME280;67697;50.750;-3.270;2024-02-23T02:33:55;97994.39;;;5.31;100.00
78409;BME280;67697;50.750;-3.270;2024-02-23T02:36:21;97993.44;;;5.57;100.00
78409;BME280;67697;50.750;-3.270;2024-02-23T02:38:46;97982.22;;;6.95;100.00
78409;BME280;67697;50.750;-3.270;2024-02-23T02:41:12;97979.24;;;6.23;100.00
78409;BME280;67697;50.750;-3.270;2024-02-23T02:43:38;97981.64;;;6.77;100.00
78409;BME280;67697;50.750;-3.270;2024-02-23T02:46:04;97976.39;;;6.86;100.00
78409;BME280;67697;50.750;-3.270;2024-02-23T02:48:29;97976.77;;;5.81;100.00
78409;BME280;67697;50.750;-3.270;2024-02-23T02:50:55;97978.97;;;5.07;100.00
78409;BME280;67697;50.750;-3.270;2024-02-23T02:53:21;97977.69;;;4.94;100.00
78409;BME280;67697;50.750;-3.270;2024-02-23T02:55:47;97973.78;;;5.14;100.00
78409;BME280;67697;50.750;-3.270;2024-02-23T02:58:12;97970.04;;;5.25;100.00
78409;BME280;67697;50.750;-3.270;2024-02-23T03:00:38;97959.26;;;6.14;100.00
78409;BME280;67697;50.750;-3.270;2024-02-23T03:03:04;97960.35;;;5.57;100.00
78409;BME280;67697;50.750;-3.270;2024-02-23T03:05:30;97957.88;;;4.16;100.00
78409;BME280;67697;50.750;-3.270;2024-02-23T03:07:55;97949.66;;;4.16;100.00
78409;BME280;67697;50.750;-3.270;2024-02-23T03:10:26;97954.25;;;4.29;100.00
78409;BME280;67697;50.750;-3.270;2024-02-23T03:12:47;97952.36;;;3.90;100.00
78409;BME280;67697;50.750;-3.270;2024-02-23T03:15:13;97950.12;;;4.30;100.00
78409;BME280;67697;50.750;-3.270;2024-02-23T03:17:38;97951.23;;;4.55;100.00
78409;BME280;67697;50.750;-3.270;2024-02-23T03:20:05;97952.74;;;5.48;100.00
78409;BME280;67697;50.750;-3.270;2024-02-23T03:22:30;97952.66;;;6.47;100.00
78409;BME280;67697;50.750;-3.270;2024-02-23T03:24:55;97947.10;;;7.08;100.00
78409;BME280;67697;50.750;-3.270;2024-02-23T03:27:27;97943.84;;;7.71;100.00
78409;BME280;67697;50.750;-3.270;2024-02-23T03:29:47;97945.80;;;7.64;100.00
78409;BME280;67697;50.750;-3.270;2024-02-23T03:32:13;97943.56;;;7.92;100.00
78409;BME280;67697;50.750;-3.270;2024-02-23T03:34:38;97945.31;;;7.95;100.00
78409;BME280;67697;50.750;-3.270;2024-02-23T03:37:04;97950.58;;;7.07;100.00
78409;BME280;67697;50.750;-3.270;2024-02-23T03:39:30;97948.68;;;7.67;100.00
78409;BME280;67697;50.750;-3.270;2024-02-23T03:41:56;97949.59;;;7.97;100.00
78409;BME280;67697;50.750;-3.270;2024-02-23T03:44:21;97952.88;;;9.18;100.00
78409;BME280;67697;50.750;-3.270;2024-02-23T03:46:47;97959.02;;;9.20;100.00
78409;BME280;67697;50.750;-3.270;2024-02-23T03:49:13;97960.49;;;9.24;100.00
78409;BME280;67697;50.750;-3.270;2024-02-23T03:51:38;97959.81;;;8.82;100.00
78409;BME280;67697;50.750;-3.270;2024-02-23T03:54:04;97961.85;;;8.52;100.00
78409;BME280;67697;50.750;-3.270;2024-02-23T03:56:30;97958.40;;;7.79;100.00
78409;BME280;67697;50.750;-3.270;2024-02-23T03:58:56;97959.21;;;9.30;100.00
78409;BME280;67697;50.750;-3.270;2024-02-23T04:01:21;97953.93;;;8.76;100.00
78409;BME280;67697;50.750;-3.270;2024-02-23T04:03:47;97952.09;;;8.91;100.00
78409;BME280;67697;50.750;-3.270;2024-02-23T04:06:18;97957.11;;;7.98;100.00
78409;BME280;67697;50.750;-3.270;2024-02-23T04:08:40;97963.28;;;7.61;100.00
78409;BME280;67697;50.750;-3.270;2024-02-23T04:11:04;97962.13;;;7.56;100.00
78409;BME280;67697;50.750;-3.270;2024-02-23T04:13:30;97962.35;;;8.19;100.00
78409;BME280;67697;50.750;-3.270;2024-02-23T04:15:56;97963.89;;;8.72;100.00
78409;BME280;67697;50.750;-3.270;2024-02-23T04:18:22;97966.07;;;8.90;100.00
78409;BME280;67697;50.750;-3.270;2024-02-23T04:20:47;97968.05;;;8.50;100.00
78409;BME280;67697;50.750;-3.270;2024-02-23T04:23:13;97979.03;;;7.45;100.00
78409;BME280;67697;50.750;-3.270;2024-02-23T04:25:39;97983.65;;;6.67;100.00
78409;BME280;67697;50.750;-3.270;2024-02-23T04:28:05;97983.55;;;7.29;100.00
78409;BME280;67697;50.750;-3.270;2024-02-23T04:30:30;97987.87;;;7.43;100.00
78409;BME280;67697;50.750;-3.270;2024-02-23T04:32:56;97983.43;;;6.70;100.00
78409;BME280;67697;50.750;-3.270;2024-02-23T04:35:22;97984.82;;;7.18;100.00
78409;BME280;67697;50.750;-3.270;2024-02-23T04:37:47;97991.07;;;5.94;100.00
78409;BME280;67697;50.750;-3.270;2024-02-23T04:40:14;97987.01;;;6.13;100.00
78409;BME280;67697;50.750;-3.270;2024-02-23T04:42:39;97998.06;;;5.12;100.00
78409;BME280;67697;50.750;-3.270;2024-02-23T04:45:06;98002.27;;;5.54;100.00
78409;BME280;67697;50.750;-3.270;2024-02-23T04:47:31;98006.97;;;5.39;100.00
78409;BME280;67697;50.750;-3.270;2024-02-23T04:49:56;98014.63;;;5.16;100.00
78409;BME280;67697;50.750;-3.270;2024-02-23T04:52:22;98001.43;;;5.12;100.00
78409;BME280;67697;50.750;-3.270;2024-02-23T04:54:48;97987.05;;;4.62;100.00
78409;BME280;67697;50.750;-3.270;2024-02-23T04:57:14;97982.73;;;5.48;100.00
78409;BME280;67697;50.750;-3.270;2024-02-23T04:59:39;97987.24;;;5.85;100.00
78409;BME280;67697;50.750;-3.270;2024-02-23T05:02:05;97991.16;;;6.39;100.00
78409;BME280;67697;50.750;-3.270;2024-02-23T05:04:32;97993.85;;;6.35;100.00
78409;BME280;67697;50.750;-3.270;2024-02-23T05:06:56;97986.68;;;6.58;100.00
78409;BME280;67697;50.750;-3.270;2024-02-23T05:09:22;97983.13;;;7.88;100.00
78409;BME280;67697;50.750;-3.270;2024-02-23T05:11:48;97980.58;;;8.31;100.00
78409;BME280;67697;50.750;-3.270;2024-02-23T05:14:14;97982.54;;;8.49;100.00
78409;BME280;67697;50.750;-3.270;2024-02-23T05:16:40;97980.79;;;9.46;100.00
78409;BME280;67697;50.750;-3.270;2024-02-23T05:19:05;97980.84;;;9.49;100.00
78409;BME280;67697;50.750;-3.270;2024-02-23T05:21:31;97983.26;;;9.37;100.00
78409;BME280;67697;50.750;-3.270;2024-02-23T05:23:56;97984.66;;;8.87;100.00
78409;BME280;67697;50.750;-3.270;2024-02-23T05:26:22;97989.83;;;8.77;100.00
78409;BME280;67697;50.750;-3.270;2024-02-23T05:28:48;97990.49;;;8.95;100.00
78409;BME280;67697;50.750;-3.270;2024-02-23T05:31:14;97996.33;;;9.57;100.00
78409;BME280;67697;50.750;-3.270;2024-02-23T05:33:39;98001.11;;;9.73;99.08
78409;BME280;67697;50.750;-3.270;2024-02-23T05:36:05;98002.46;;;10.24;97.34
78409;BME280;67697;50.750;-3.270;2024-02-23T05:38:31;98003.29;;;8.49;100.00
78409;BME280;67697;50.750;-3.270;2024-02-23T05:40:56;98002.25;;;8.15;100.00
78409;BME280;67697;50.750;-3.270;2024-02-23T05:43:22;97997.24;;;8.14;100.00
78409;BME280;67697;50.750;-3.270;2024-02-23T05:45:48;97999.57;;;7.73;100.00
78409;BME280;67697;50.750;-3.270;2024-02-23T05:48:14;97998.40;;;7.27;100.00
78409;BME280;67697;50.750;-3.270;2024-02-23T05:50:39;97995.45;;;6.60;100.00
78409;BME280;67697;50.750;-3.270;2024-02-23T05:53:05;97997.82;;;6.09;100.00
78409;BME280;67697;50.750;-3.270;2024-02-23T05:55:31;97998.69;;;5.36;100.00
78409;BME280;67697;50.750;-3.270;2024-02-23T05:57:57;97994.51;;;5.88;100.00
78409;BME280;67697;50.750;-3.270;2024-02-23T06:00:22;97997.79;;;5.33;100.00
78409;BME280;67697;50.750;-3.270;2024-02-23T06:02:48;97994.45;;;3.74;100.00
78409;BME280;67697;50.750;-3.270;2024-02-23T06:05:14;97991.80;;;4.15;100.00
78409;BME280;67697;50.750;-3.270;2024-02-23T06:07:41;97990.32;;;3.49;100.00
78409;BME280;67697;50.750;-3.270;2024-02-23T06:10:06;97992.41;;;3.47;100.00
78409;BME280;67697;50.750;-3.270;2024-02-23T06:12:31;97991.57;;;3.35;100.00
78409;BME280;67697;50.750;-3.270;2024-02-23T06:14:57;97983.73;;;4.19;100.00
78409;BME280;67697;50.750;-3.270;2024-02-23T06:17:23;97980.19;;;4.02;100.00
78409;BME280;67697;50.750;-3.270;2024-02-23T06:19:48;97979.56;;;5.08;100.00
78409;BME280;67697;50.750;-3.270;2024-02-23T06:22:15;97974.16;;;5.67;100.00
78409;BME280;67697;50.750;-3.270;2024-02-23T06:24:40;97974.81;;;5.91;100.00
78409;BME280;67697;50.750;-3.270;2024-02-23T06:27:06;97969.21;;;6.87;100.00
78409;BME280;67697;50.750;-3.270;2024-02-23T06:29:32;97974.44;;;7.20;100.00
78409;BME280;67697;50.750;-3.270;2024-02-23T06:31:57;97975.11;;;7.78;100.00
78409;BME280;67697;50.750;-3.270;2024-02-23T06:34:23;97973.07;;;8.33;100.00
78409;BME280;67697;50.750;-3.270;2024-02-23T06:36:49;97972.39;;;8.50;100.00
78409;BME280;67697;50.750;-3.270;2024-02-23T06:39:14;97969.34;;;8.02;100.00
78409;BME280;67697;50.750;-3.270;2024-02-23T06:41:40;97969.81;;;6.30;100.00
78409;BME280;67697;50.750;-3.270;2024-02-23T06:44:06;97968.44;;;7.77;100.00
78409;BME280;67697;50.750;-3.270;2024-02-23T06:46:32;97968.46;;;7.99;100.00
78409;BME280;67697;50.750;-3.270;2024-02-23T06:48:58;97967.27;;;8.14;100.00
78409;BME280;67697;50.750;-3.270;2024-02-23T06:51:24;97968.60;;;8.03;100.00
78409;BME280;67697;50.750;-3.270;2024-02-23T06:53:49;97971.76;;;8.60;100.00
78409;BME280;67697;50.750;-3.270;2024-02-23T06:56:15;97977.49;;;8.25;100.00
78409;BME280;67697;50.750;-3.270;2024-02-23T06:58:41;97979.98;;;8.94;98.43
78409;BME280;67697;50.750;-3.270;2024-02-23T07:01:06;97980.14;;;8.27;100.00
78409;BME280;67697;50.750;-3.270;2024-02-23T07:03:32;97982.02;;;8.57;99.59
78409;BME280;67697;50.750;-3.270;2024-02-23T07:05:58;97985.24;;;8.61;98.11
78409;BME280;67697;50.750;-3.270;2024-02-23T07:08:24;97984.85;;;8.50;97.09
78409;BME280;67697;50.750;-3.270;2024-02-23T07:10:49;97982.35;;;8.92;95.60
78409;BME280;67697;50.750;-3.270;2024-02-23T07:13:15;97978.51;;;9.26;94.57
78409;BME280;67697;50.750;-3.270;2024-02-23T07:15:41;97982.94;;;8.89;95.95
78409;BME280;67697;50.750;-3.270;2024-02-23T07:18:07;97985.29;;;8.70;96.69
78409;BME280;67697;50.750;-3.270;2024-02-23T07:20:32;97988.97;;;8.04;96.33
78409;BME280;67697;50.750;-3.270;2024-02-23T07:22:58;98005.26;;;5.10;100.00
78409;BME280;67697;50.750;-3.270;2024-02-23T07:25:24;98004.89;;;7.45;100.00
78409;BME280;67697;50.750;-3.270;2024-02-23T07:27:50;98008.24;;;7.03;100.00
78409;BME280;67697;50.750;-3.270;2024-02-23T07:30:16;98008.57;;;8.08;100.00
78409;BME280;67697;50.750;-3.270;2024-02-23T07:32:41;98012.73;;;8.73;99.22
78409;BME280;67697;50.750;-3.270;2024-02-23T07:35:08;98015.96;;;8.44;98.44
78409;BME280;67697;50.750;-3.270;2024-02-23T07:37:32;98021.75;;;7.53;100.00
78409;BME280;67697;50.750;-3.270;2024-02-23T07:39:58;98023.16;;;7.57;100.00
78409;BME280;67697;50.750;-3.270;2024-02-23T07:42:24;98024.09;;;6.83;100.00
78409;BME280;67697;50.750;-3.270;2024-02-23T07:44:50;98027.64;;;7.27;100.00
78409;BME280;67697;50.750;-3.270;2024-02-23T07:47:15;98034.96;;;7.46;100.00
78409;BME280;67697;50.750;-3.270;2024-02-23T07:49:41;98037.55;;;7.36;100.00
78409;BME280;67697;50.750;-3.270;2024-02-23T07:52:07;98045.67;;;7.83;100.00
78409;BME280;67697;50.750;-3.270;2024-02-23T07:54:33;98045.12;;;8.60;100.00
78409;BME280;67697;50.750;-3.270;2024-02-23T07:56:58;98052.61;;;7.80;100.00
78409;BME280;67697;50.750;-3.270;2024-02-23T07:59:24;98060.75;;;6.55;100.00
78409;BME280;67697;50.750;-3.270;2024-02-23T08:01:51;98062.87;;;6.30;100.00
78409;BME280;67697;50.750;-3.270;2024-02-23T08:04:16;98066.54;;;6.51;100.00
78409;BME280;67697;50.750;-3.270;2024-02-23T08:06:41;98069.13;;;5.97;100.00
78409;BME280;67697;50.750;-3.270;2024-02-23T08:09:10;98069.10;;;5.63;100.00
78409;BME280;67697;50.750;-3.270;2024-02-23T08:11:33;98067.18;;;6.20;100.00
78409;BME280;67697;50.750;-3.270;2024-02-23T08:13:59;98067.57;;;6.71;100.00
78409;BME280;67697;50.750;-3.270;2024-02-23T08:16:24;98073.14;;;6.68;100.00
78409;BME280;67697;50.750;-3.270;2024-02-23T08:18:50;98072.31;;;6.78;100.00
78409;BME280;67697;50.750;-3.270;2024-02-23T08:21:16;98077.15;;;6.42;100.00
78409;BME280;67697;50.750;-3.270;2024-02-23T08:23:41;98077.34;;;6.71;100.00
78409;BME280;67697;50.750;-3.270;2024-02-23T08:26:08;98074.75;;;6.58;100.00
78409;BME280;67697;50.750;-3.270;2024-02-23T08:28:33;98068.35;;;7.42;100.00
78409;BME280;67697;50.750;-3.270;2024-02-23T08:30:59;98067.64;;;7.05;100.00
78409;BME280;67697;50.750;-3.270;2024-02-23T08:33:25;98074.47;;;5.82;100.00
78409;BME280;67697;50.750;-3.270;2024-02-23T08:35:50;98071.83;;;6.48;100.00
78409;BME280;67697;50.750;-3.270;2024-02-23T08:38:16;98077.45;;;6.03;100.00
78409;BME280;67697;50.750;-3.270;2024-02-23T08:40:42;98074.36;;;6.01;100.00
78409;BME280;67697;50.750;-3.270;2024-02-23T08:43:08;98074.24;;;5.49;100.00
78409;BME280;67697;50.750;-3.270;2024-02-23T08:45:33;98076.43;;;5.08;100.00
78409;BME280;67697;50.750;-3.270;2024-02-23T08:47:59;98073.22;;;5.24;100.00
78409;BME280;67697;50.750;-3.270;2024-02-23T08:50:25;98074.19;;;5.01;100.00
78409;BME280;67697;50.750;-3.270;2024-02-23T08:52:51;98074.81;;;4.82;100.00
78409;BME280;67697;50.750;-3.270;2024-02-23T08:55:17;98076.72;;;5.39;100.00
78409;BME280;67697;50.750;-3.270;2024-02-23T08:57:42;98078.11;;;5.30;100.00
78409;BME280;67697;50.750;-3.270;2024-02-23T09:00:09;98081.78;;;4.94;100.00
78409;BME280;67697;50.750;-3.270;2024-02-23T09:02:34;98084.05;;;4.80;100.00
78409;BME280;67697;50.750;-3.270;2024-02-23T09:04:59;98082.98;;;5.49;100.00
78409;BME280;67697;50.750;-3.270;2024-02-23T09:07:25;98081.88;;;4.83;100.00
78409;BME280;67697;50.750;-3.270;2024-02-23T09:09:51;98078.25;;;5.31;100.00
78409;BME280;67697;50.750;-3.270;2024-02-23T09:12:17;98080.34;;;5.17;100.00
78409;BME280;67697;50.750;-3.270;2024-02-23T09:14:47;98080.85;;;5.85;100.00
78409;BME280;67697;50.750;-3.270;2024-02-23T09:17:08;98083.02;;;5.19;100.00
78409;BME280;67697;50.750;-3.270;2024-02-23T09:19:34;98080.28;;;6.00;100.00
78409;BME280;67697;50.750;-3.270;2024-02-23T09:21:59;98069.00;;;5.04;100.00
78409;BME280;67697;50.750;-3.270;2024-02-23T09:24:25;98067.01;;;4.88;100.00
78409;BME280;67697;50.750;-3.270;2024-02-23T09:26:51;98085.33;;;4.63;100.00
78409;BME280;67697;50.750;-3.270;2024-02-23T09:29:17;98095.42;;;4.87;100.00
78409;BME280;67697;50.750;-3.270;2024-02-23T09:31:42;98091.98;;;4.63;100.00
78409;BME280;67697;50.750;-3.270;2024-02-23T09:34:08;98090.77;;;4.71;100.00
78409;BME280;67697;50.750;-3.270;2024-02-23T09:36:34;98087.00;;;4.53;100.00
78409;BME280;67697;50.750;-3.270;2024-02-23T09:38:59;98090.76;;;3.73;100.00
78409;BME280;67697;50.750;-3.270;2024-02-23T09:41:25;98089.55;;;4.12;100.00
78409;BME280;67697;50.750;-3.270;2024-02-23T09:43:51;98090.79;;;4.72;100.00
78409;BME280;67697;50.750;-3.270;2024-02-23T09:46:17;98090.02;;;4.71;100.00
78409;BME280;67697;50.750;-3.270;2024-02-23T09:48:43;98096.95;;;3.78;100.00
78409;BME280;67697;50.750;-3.270;2024-02-23T09:51:10;98108.32;;;3.29;100.00
78409;BME280;67697;50.750;-3.270;2024-02-23T09:53:37;98109.33;;;3.00;100.00
78409;BME280;67697;50.750;-3.270;2024-02-23T09:56:00;98109.20;;;3.09;100.00
78409;BME280;67697;50.750;-3.270;2024-02-23T09:58:26;98100.43;;;3.16;100.00
78409;BME280;67697;50.750;-3.270;2024-02-23T10:00:51;98109.83;;;2.69;100.00
78409;BME280;67697;50.750;-3.270;2024-02-23T10:03:17;98109.47;;;2.78;100.00
78409;BME280;67697;50.750;-3.270;2024-02-23T10:05:42;98098.38;;;3.36;100.00
78409;BME280;67697;50.750;-3.270;2024-02-23T10:08:10;98095.16;;;3.59;100.00
78409;BME280;67697;50.750;-3.270;2024-02-23T10:10:35;98092.90;;;4.23;100.00
78409;BME280;67697;50.750;-3.270;2024-02-23T10:13:01;98092.56;;;4.57;100.00
78409;BME280;67697;50.750;-3.270;2024-02-23T10:15:26;98092.82;;;4.31;100.00
78409;BME280;67697;50.750;-3.270;2024-02-23T10:17:51;98089.58;;;4.70;100.00
78409;BME280;67697;50.750;-3.270;2024-02-23T10:20:17;98091.15;;;4.78;100.00
78409;BME280;67697;50.750;-3.270;2024-02-23T10:22:43;98090.21;;;4.75;100.00
78409;BME280;67697;50.750;-3.270;2024-02-23T10:25:10;98084.26;;;4.81;100.00
78409;BME280;67697;50.750;-3.270;2024-02-23T10:27:34;98075.70;;;5.60;100.00
78409;BME280;67697;50.750;-3.270;2024-02-23T10:30:00;98074.22;;;5.65;100.00
78409;BME280;67697;50.750;-3.270;2024-02-23T10:32:29;98080.58;;;6.41;100.00
78409;BME280;67697;50.750;-3.270;2024-02-23T10:34:52;98071.44;;;6.34;100.00
78409;BME280;67697;50.750;-3.270;2024-02-23T10:37:17;98078.39;;;5.91;100.00
78409;BME280;67697;50.750;-3.270;2024-02-23T10:39:51;98081.19;;;5.54;100.00
78409;BME280;67697;50.750;-3.270;2024-02-23T10:42:10;98078.61;;;6.31;100.00
78409;BME280;67697;50.750;-3.270;2024-02-23T10:44:35;98081.73;;;6.45;100.00
78409;BME280;67697;50.750;-3.270;2024-02-23T10:47:00;98087.90;;;6.26;100.00
78409;BME280;67697;50.750;-3.270;2024-02-23T10:49:26;98093.75;;;5.83;100.00
78409;BME280;67697;50.750;-3.270;2024-02-23T10:51:52;98094.89;;;5.60;100.00
78409;BME280;67697;50.750;-3.270;2024-02-23T10:54:19;98098.37;;;5.88;100.00
78409;BME280;67697;50.750;-3.270;2024-02-23T10:56:46;98097.86;;;6.32;100.00
78409;BME280;67697;50.750;-3.270;2024-02-23T10:59:09;98098.99;;;5.72;100.00
78409;BME280;67697;50.750;-3.270;2024-02-23T11:01:35;98101.08;;;5.77;100.00
78409;BME280;67697;50.750;-3.270;2024-02-23T11:04:01;98102.49;;;6.25;100.00
78409;BME280;67697;50.750;-3.270;2024-02-23T11:06:28;98102.46;;;6.25;100.00
78409;BME280;67697;50.750;-3.270;2024-02-23T11:08:52;98102.26;;;5.58;100.00
78409;BME280;67697;50.750;-3.270;2024-02-23T11:11:17;98103.26;;;5.00;100.00
78409;BME280;67697;50.750;-3.270;2024-02-23T11:13:44;98109.84;;;5.02;100.00
78409;BME280;67697;50.750;-3.270;2024-02-23T11:16:10;98108.39;;;5.62;100.00
78409;BME280;67697;50.750;-3.270;2024-02-23T11:18:35;98107.57;;;5.46;100.00
78409;BME280;67697;50.750;-3.270;2024-02-23T11:21:01;98109.41;;;5.40;100.00
78409;BME280;67697;50.750;-3.270;2024-02-23T11:23:26;98113.88;;;5.88;100.00
78409;BME280;67697;50.750;-3.270;2024-02-23T11:26:05;98112.66;;;6.03;100.00
78409;BME280;67697;50.750;-3.270;2024-02-23T11:28:22;98105.90;;;5.69;100.00
78409;BME280;67697;50.750;-3.270;2024-02-23T11:30:44;98102.16;;;5.58;100.00
78409;BME280;67697;50.750;-3.270;2024-02-23T11:33:09;98101.30;;;6.15;100.00
78409;BME280;67697;50.750;-3.270;2024-02-23T11:35:34;98100.85;;;6.27;100.00
78409;BME280;67697;50.750;-3.270;2024-02-23T11:38:04;98100.45;;;6.97;100.00
78409;BME280;67697;50.750;-3.270;2024-02-23T11:40:26;98103.29;;;6.50;100.00
78409;BME280;67697;50.750;-3.270;2024-02-23T11:42:52;98108.88;;;5.55;100.00
78409;BME280;67697;50.750;-3.270;2024-02-23T11:45:17;98112.79;;;6.25;100.00
78409;BME280;67697;50.750;-3.270;2024-02-23T11:47:43;98112.34;;;6.52;100.00
78409;BME280;67697;50.750;-3.270;2024-02-23T11:50:10;98104.70;;;6.96;100.00
78409;BME280;67697;50.750;-3.270;2024-02-23T11:52:36;98100.91;;;7.34;100.00
78409;BME280;67697;50.750;-3.270;2024-02-23T11:55:00;98110.53;;;7.14;100.00
78409;BME280;67697;50.750;-3.270;2024-02-23T11:57:26;98119.99;;;6.08;100.00
78409;BME280;67697;50.750;-3.270;2024-02-23T11:59:57;98127.25;;;4.42;100.00
78409;BME280;67697;50.750;-3.270;2024-02-23T12:02:17;98122.71;;;6.48;100.00
78409;BME280;67697;50.750;-3.270;2024-02-23T12:04:43;98112.64;;;7.62;100.00
78409;BME280;67697;50.750;-3.270;2024-02-23T12:07:09;98109.65;;;6.98;100.00
78409;BME280;67697;50.750;-3.270;2024-02-23T12:09:34;98106.71;;;7.11;100.00
78409;BME280;67697;50.750;-3.270;2024-02-23T12:12:00;98113.10;;;7.02;100.00
78409;BME280;67697;50.750;-3.270;2024-02-23T12:14:26;98114.43;;;6.18;100.00
78409;BME280;67697;50.750;-3.270;2024-02-23T12:16:52;98112.23;;;6.04;100.00
78409;BME280;67697;50.750;-3.270;2024-02-23T12:19:17;98108.87;;;7.34;100.00
78409;BME280;67697;50.750;-3.270;2024-02-23T12:21:45;98121.97;;;6.96;100.00
78409;BME280;67697;50.750;-3.270;2024-02-23T12:24:09;98123.86;;;6.25;100.00
78409;BME280;67697;50.750;-3.270;2024-02-23T12:26:34;98119.81;;;5.49;100.00
78409;BME280;67697;50.750;-3.270;2024-02-23T12:29:01;98120.12;;;5.82;100.00
78409;BME280;67697;50.750;-3.270;2024-02-23T12:31:32;98119.67;;;6.56;100.00
78409;BME280;67697;50.750;-3.270;2024-02-23T12:33:52;98119.73;;;6.38;100.00
78409;BME280;67697;50.750;-3.270;2024-02-23T12:36:17;98116.89;;;5.89;100.00
78409;BME280;67697;50.750;-3.270;2024-02-23T12:38:43;98098.31;;;6.80;100.00
78409;BME280;67697;50.750;-3.270;2024-02-23T12:41:09;98101.71;;;7.33;100.00
78409;BME280;67697;50.750;-3.270;2024-02-23T12:43:34;98106.98;;;7.97;100.00